Time;durP1;ratioP1;P1;durP2;ratioP2;P2;SDS_P1;SDS_P2;PMS_P1;PMS_P2;Temp;Humidity;BMP_temperature;BMP_pressure;BME280_temperature;BME280_humidity;BME280_pressure;Samples;Min_cycle;Max_cycle;Signal;HPM_P1;HPM_P2
2023/05/09 00:01:59;;;;;;;22.70;20.47;;;;;;;13.92;100.00;98370.56;5115913;28;20234;-78
2023/05/09 00:04:26;;;;;;;23.07;20.87;;;;;;;13.88;100.00;98371.25;5115272;28;20696;-78
2023/05/09 00:06:52;;;;;;;26.20;23.40;;;;;;;13.84;100.00;98364.75;5114848;28;20728;-78
2023/05/09 00:09:18;;;;;;;27.03;24.33;;;;;;;13.86;100.00;98368.81;5115775;28;20203;-78
2023/05/09 00:11:45;;;;;;;26.73;24.03;;;;;;;13.90;100.00;98367.31;5115121;28;20603;-78
2023/05/09 00:14:12;;;;;;;27.30;24.43;;;;;;;13.89;100.00;98370.22;5114591;28;20603;-78
2023/05/09 00:16:39;;;;;;;27.60;24.70;;;;;;;13.89;100.00;98362.19;5118503;28;20227;-78
2023/05/09 00:19:06;;;;;;;27.77;24.97;;;;;;;13.90;100.00;98367.31;5119122;28;20206;-78
2023/05/09 00:21:33;;;;;;;29.80;25.90;;;;;;;13.92;100.00;98367.88;5118557;28;20676;-78
2023/05/09 00:23:59;;;;;;;27.67;25.07;;;;;;;13.93;100.00;98361.47;5118998;28;20199;-78
2023/05/09 00:26:26;;;;;;;28.07;25.13;;;;;;;13.92;100.00;98357.19;5118980;27;20279;-78
2023/05/09 00:28:53;;;;;;;26.63;24.00;;;;;;;13.88;100.00;98353.34;5118560;28;20578;-78
2023/05/09 00:31:20;;;;;;;28.53;25.47;;;;;;;13.84;100.00;98351.38;5118467;28;20210;-78
2023/05/09 00:33:47;;;;;;;27.30;24.50;;;;;;;13.81;100.00;98350.00;5118053;28;20569;-78
2023/05/09 00:36:13;;;;;;;28.63;24.97;;;;;;;13.80;100.00;98344.88;5118446;28;20618;-78
2023/05/09 00:38:40;;;;;;;28.00;25.23;;;;;;;13.83;100.00;98339.06;5118389;28;20206;-78
2023/05/09 00:41:07;;;;;;;28.47;25.63;;;;;;;13.82;100.00;98332.91;5118479;28;20211;-78
2023/05/09 00:43:33;;;;;;;28.60;25.60;;;;;;;13.82;100.00;98343.59;5118390;28;20203;-78
2023/05/09 00:46:00;;;;;;;29.50;26.60;;;;;;;13.86;100.00;98343.94;5118350;28;20227;-78
2023/05/09 00:48:26;;;;;;;29.07;26.17;;;;;;;13.87;100.00;98335.69;5118278;28;20749;-78
2023/05/09 00:50:52;;;;;;;29.87;26.77;;;;;;;13.86;100.00;98333.25;5118299;28;20199;-78
2023/05/09 00:53:20;;;;;;;30.90;27.50;;;;;;;13.86;100.00;98333.25;5117863;28;20258;-78
2023/05/09 00:55:46;;;;;;;30.07;26.73;;;;;;;13.84;100.00;98327.34;5118086;28;20222;-78
2023/05/09 00:58:13;;;;;;;28.60;25.60;;;;;;;13.82;100.00;98327.56;5118217;27;20210;-78
2023/05/09 01:00:40;;;;;;;27.80;25.00;;;;;;;13.77;100.00;98329.28;5117945;28;20207;-78
2023/05/09 01:03:07;;;;;;;29.37;26.47;;;;;;;13.76;100.00;98325.00;5117820;28;20210;-78
2023/05/09 01:05:42;;;;;;;29.93;26.23;;;;;;;13.72;100.00;98322.00;5117853;27;20219;-78
2023/05/09 01:08:37;;;;;;;30.83;27.70;;;;;;;13.72;100.00;98313.16;5118133;27;20191;-78
2023/05/09 01:11:11;;;;;;;28.93;26.00;;;;;;;13.67;100.00;98321.06;5117851;28;20207;-78
2023/05/09 01:14:10;;;;;;;30.43;26.60;;;;;;;13.63;100.00;98320.72;5118019;28;20217;-78
2023/05/09 01:16:52;;;;;;;28.80;25.90;;;;;;;13.68;100.00;98312.81;5099601;28;20223;-78
2023/05/09 01:19:31;;;;;;;30.63;26.17;;;;;;;13.66;100.00;98312.22;5117681;28;20227;-78
2023/05/09 01:22:00;;;;;;;29.93;26.17;;;;;;;13.63;100.00;98306.53;5116102;28;20261;-78
2023/05/09 01:25:01;;;;;;;29.67;26.40;;;;;;;13.61;100.00;98314.75;5116530;28;20293;-78
2023/05/09 01:27:57;;;;;;;29.47;26.23;;;;;;;13.62;100.00;98311.03;5116552;28;20623;-78
2023/05/09 01:30:25;;;;;;;28.90;25.90;;;;;;;13.60;100.00;98310.47;5117555;28;20192;-78
2023/05/09 01:32:57;;;;;;;30.30;26.63;;;;;;;13.61;100.00;98314.75;5117277;28;20670;-78
2023/05/09 01:35:26;;;;;;;28.87;25.87;;;;;;;13.61;100.00;98311.31;5118032;28;20686;-78
2023/05/09 01:37:54;;;;;;;30.57;27.37;;;;;;;13.60;100.00;98309.66;5117272;28;20677;-78
2023/05/09 01:40:23;;;;;;;29.03;26.00;;;;;;;13.54;100.00;98311.41;5118018;28;20203;-78
2023/05/09 01:43:03;;;;;;;29.17;25.57;;;;;;;13.57;100.00;98302.13;5117651;28;20662;-78
2023/05/09 01:45:31;;;;;;;30.73;27.53;;;;;;;13.52;100.00;98302.81;5117475;27;20226;-79
2023/05/09 01:47:58;;;;;;;30.33;27.33;;;;;;;13.45;100.00;98301.28;5116661;28;20209;-78
2023/05/09 01:50:25;;;;;;;30.63;27.53;;;;;;;13.45;100.00;98294.09;5117930;28;20207;-78
2023/05/09 01:52:56;;;;;;;31.03;27.80;;;;;;;13.47;100.00;98294.66;5117014;28;20693;-78
2023/05/09 01:55:26;;;;;;;29.80;26.80;;;;;;;13.44;100.00;98297.81;5117355;28;20242;-78
2023/05/09 01:57:53;;;;;;;30.67;27.50;;;;;;;13.42;100.00;98294.56;5117189;28;20260;-78
2023/05/09 02:00:22;;;;;;;29.60;26.33;;;;;;;13.35;100.00;98295.72;5117122;28;20211;-78
2023/05/09 02:02:49;;;;;;;29.30;26.27;;;;;;;13.36;100.00;98284.81;5116926;28;20255;-78
2023/05/09 02:05:17;;;;;;;30.77;27.57;;;;;;;13.37;100.00;98291.75;5116952;28;20277;-78
2023/05/09 02:07:46;;;;;;;31.23;27.83;;;;;;;13.32;100.00;98288.16;5117382;28;20203;-78
2023/05/09 02:10:15;;;;;;;30.87;27.83;;;;;;;13.35;100.00;98288.53;5117329;28;20213;-78
2023/05/09 02:12:41;;;;;;;30.17;27.17;;;;;;;13.33;100.00;98287.91;5116967;27;20542;-78
2023/05/09 02:15:08;;;;;;;31.07;27.73;;;;;;;13.36;100.00;98295.47;5115365;28;20219;-78
2023/05/09 02:17:35;;;;;;;29.87;26.47;;;;;;;13.36;100.00;98284.81;5116945;27;20207;-78
2023/05/09 02:20:01;;;;;;;31.20;27.93;;;;;;;13.37;100.00;98294.44;5116464;28;20207;-78
2023/05/09 02:22:28;;;;;;;29.37;26.30;;;;;;;13.39;100.00;98308.34;5116986;28;20183;-78
2023/05/09 02:24:54;;;;;;;31.63;28.30;;;;;;;13.38;100.00;98298.72;5117141;28;20278;-78
2023/05/09 02:27:21;;;;;;;29.50;26.40;;;;;;;13.40;100.00;98302.00;5116753;27;20199;-78
2023/05/09 02:29:50;;;;;;;29.63;26.67;;;;;;;13.43;100.00;98303.38;5117105;28;20670;-78
2023/05/09 02:32:22;;;;;;;29.53;26.63;;;;;;;13.44;100.00;98302.34;5116550;28;20577;-78
2023/05/09 02:34:51;;;;;;;29.20;26.30;;;;;;;13.43;100.00;98298.84;5117180;28;20204;-78
2023/05/09 02:37:18;;;;;;;29.70;26.70;;;;;;;13.41;100.00;98294.78;5116649;28;20211;-78
2023/05/09 02:39:45;;;;;;;29.60;26.60;;;;;;;13.42;100.00;98294.56;5115415;28;20207;-78
2023/05/09 02:42:14;;;;;;;28.60;25.80;;;;;;;13.36;100.00;98295.47;5116896;28;20209;-78
2023/05/09 02:44:40;;;;;;;29.07;25.97;;;;;;;13.37;100.00;98283.75;5116566;28;20229;-78
2023/05/09 02:47:07;;;;;;;29.00;25.90;;;;;;;13.35;100.00;98285.03;5116424;28;20259;-78
2023/05/09 02:49:34;;;;;;;28.97;25.97;;;;;;;13.31;100.00;98282.00;5116797;28;20199;-78
2023/05/09 02:52:01;;;;;;;28.47;25.07;;;;;;;13.28;100.00;98274.44;5116147;28;20206;-78
2023/05/09 02:54:27;;;;;;;27.63;24.60;;;;;;;13.28;100.00;98281.63;5115817;28;20219;-78
2023/05/09 02:56:54;;;;;;;27.50;24.77;;;;;;;13.25;100.00;98274.09;5115730;28;20219;-78
2023/05/09 02:59:20;;;;;;;26.43;23.73;;;;;;;13.23;100.00;98269.00;5116157;28;20207;-78
2023/05/09 03:01:47;;;;;;;27.27;24.37;;;;;;;13.29;100.00;98273.41;5115957;28;20199;-78
2023/05/09 03:04:13;;;;;;;27.63;24.67;;;;;;;13.29;100.00;98267.28;5115934;28;20201;-78
2023/05/09 03:06:39;;;;;;;28.07;24.97;;;;;;;13.19;100.00;98259.00;5115888;28;20223;-78
2023/05/09 03:09:07;;;;;;;28.93;24.10;;;;;;;13.24;100.00;98257.25;5115879;28;20213;-78
2023/05/09 03:11:35;;;;;;;26.67;23.97;;;;;;;13.22;100.00;98261.22;5115883;28;20203;-78
2023/05/09 03:14:01;;;;;;;29.87;25.10;;;;;;;13.19;100.00;98264.34;5115687;28;20589;-78
2023/05/09 03:16:28;;;;;;;26.83;23.93;;;;;;;13.16;100.00;98260.25;5115543;28;20246;-78
2023/05/09 03:18:54;;;;;;;29.63;25.83;;;;;;;13.17;100.00;98261.91;5115823;28;20206;-78
2023/05/09 03:21:21;;;;;;;29.27;25.73;;;;;;;13.14;100.00;98249.03;5115293;28;20230;-78
2023/05/09 03:23:47;;;;;;;27.57;24.77;;;;;;;13.11;100.00;98257.47;5115676;28;20210;-78
2023/05/09 03:26:13;;;;;;;29.33;26.23;;;;;;;13.10;100.00;98261.19;5115724;28;20219;-78
2023/05/09 03:28:40;;;;;;;28.73;25.73;;;;;;;13.08;100.00;98251.78;5115570;28;20207;-78
2023/05/09 03:31:06;;;;;;;30.67;26.13;;;;;;;13.07;100.00;98250.16;5115293;28;20209;-78
2023/05/09 03:33:33;;;;;;;29.67;26.57;;;;;;;13.05;100.00;98250.41;5115306;28;20203;-78
2023/05/09 03:35:59;;;;;;;30.83;26.30;;;;;;;13.08;100.00;98233.94;5115671;28;20219;-80
2023/05/09 03:38:25;;;;;;;29.10;26.10;;;;;;;13.07;100.00;98242.16;5115600;28;20205;-78
2023/05/09 03:40:53;;;;;;;29.43;26.40;;;;;;;13.07;100.00;98240.28;5115136;28;20199;-78
2023/05/09 03:43:20;;;;;;;29.70;26.67;;;;;;;13.07;100.00;98242.16;5115231;28;20203;-78
2023/05/09 03:45:46;;;;;;;29.73;26.83;;;;;;;13.07;100.00;98244.84;5115123;28;20245;-78
2023/05/09 03:48:13;;;;;;;29.30;26.20;;;;;;;13.11;100.00;98238.78;5115075;28;20203;-78
2023/05/09 03:50:39;;;;;;;30.53;26.77;;;;;;;13.06;100.00;98237.88;5116945;28;20199;-78
2023/05/09 03:53:06;;;;;;;30.20;27.00;;;;;;;13.08;100.00;98246.44;5119118;28;20738;-78
2023/05/09 03:55:32;;;;;;;29.73;26.40;;;;;;;13.05;100.00;98244.22;5118598;28;20697;-78
2023/05/09 03:57:58;;;;;;;30.83;27.63;;;;;;;13.02;100.00;98234.84;5118626;28;20680;-78
2023/05/09 04:00:26;;;;;;;32.07;27.77;;;;;;;13.09;100.00;98242.72;5119416;28;20203;-78
2023/05/09 04:02:53;;;;;;;31.23;27.93;;;;;;;13.08;100.00;98236.59;5119571;28;20255;-78
2023/05/09 04:05:19;;;;;;;31.87;28.57;;;;;;;13.03;100.00;98239.13;5119079;28;20241;-78
2023/05/09 04:07:46;;;;;;;31.73;27.87;;;;;;;13.08;100.00;98239.28;5119089;27;20213;-78
2023/05/09 04:10:12;;;;;;;31.30;27.13;;;;;;;13.11;100.00;98235.31;5119195;28;20565;-78
2023/05/09 04:12:38;;;;;;;29.73;26.57;;;;;;;13.10;100.00;98234.50;5118849;28;20226;-78
2023/05/09 04:15:06;;;;;;;29.77;26.80;;;;;;;13.10;100.00;98236.34;5118709;28;20226;-78
2023/05/09 04:17:32;;;;;;;30.00;26.90;;;;;;;13.10;100.00;98234.50;5118545;27;20214;-78
2023/05/09 04:19:59;;;;;;;27.57;24.87;;;;;;;13.12;100.00;98234.28;5118088;28;20199;-78
2023/05/09 04:22:25;;;;;;;28.90;25.83;;;;;;;13.10;100.00;98237.16;5118167;28;20191;-78
2023/05/09 04:24:51;;;;;;;29.37;26.33;;;;;;;13.07;100.00;98236.81;5118169;28;20202;-78
2023/05/09 04:27:18;;;;;;;29.17;26.07;;;;;;;13.14;100.00;98235.66;5117961;28;20210;-78
2023/05/09 04:29:44;;;;;;;31.30;27.23;;;;;;;13.18;100.00;98236.00;5117412;28;20661;-78
2023/05/09 04:32:11;;;;;;;29.83;26.80;;;;;;;13.21;100.00;98239.03;5117770;28;20290;-78
2023/05/09 04:34:37;;;;;;;30.63;27.43;;;;;;;13.22;100.00;98239.84;5117522;28;20227;-78
2023/05/09 04:37:04;;;;;;;29.27;26.30;;;;;;;13.21;100.00;98236.34;5117391;28;20223;-78
2023/05/09 04:39:30;;;;;;;30.40;27.30;;;;;;;13.27;100.00;98248.81;5116910;28;20700;-78
2023/05/09 04:41:57;;;;;;;29.00;26.00;;;;;;;13.27;100.00;98247.97;5117098;28;20264;-78
2023/05/09 04:44:23;;;;;;;28.90;26.03;;;;;;;13.28;100.00;98247.75;5117082;28;20206;-78
2023/05/09 04:46:50;;;;;;;31.27;26.23;;;;;;;13.30;100.00;98245.66;5116935;28;20224;-78
2023/05/09 04:49:16;;;;;;;29.03;26.13;;;;;;;13.30;100.00;98248.31;5117050;28;20271;-77
2023/05/09 04:51:43;;;;;;;28.17;25.43;;;;;;;13.29;100.00;98249.38;5116776;28;20199;-77
2023/05/09 04:54:09;;;;;;;32.33;27.47;;;;;;;13.38;100.00;98261.34;5116754;28;20203;-77
2023/05/09 04:56:35;;;;;;;32.90;27.57;;;;;;;13.43;100.00;98258.00;5116840;28;20236;-77
2023/05/09 04:59:02;;;;;;;31.27;27.63;;;;;;;13.38;100.00;98256.00;5117489;28;20199;-77
2023/05/09 05:01:28;;;;;;;30.97;25.97;;;;;;;13.37;100.00;98254.38;5115121;28;20257;-77
2023/05/09 05:03:55;;;;;;;29.13;26.13;;;;;;;13.41;100.00;98244.88;5115869;28;20570;-77
2023/05/09 05:06:21;;;;;;;28.10;25.30;;;;;;;13.40;100.00;98253.94;5116577;28;20306;-77
2023/05/09 05:08:47;;;;;;;28.57;25.60;;;;;;;13.45;100.00;98251.38;5116568;28;20199;-77
2023/05/09 05:11:14;;;;;;;27.70;24.37;;;;;;;13.47;100.00;98235.13;5116648;28;20210;-77
2023/05/09 05:13:40;;;;;;;28.60;25.67;;;;;;;13.47;100.00;98238.59;5116144;28;20290;-77
2023/05/09 05:16:06;;;;;;;28.93;26.03;;;;;;;13.49;100.00;98241.03;5116041;28;20238;-78
2023/05/09 05:18:33;;;;;;;26.80;24.20;;;;;;;13.50;100.00;98246.13;5116415;28;20207;-77
2023/05/09 05:20:59;;;;;;;27.17;24.47;;;;;;;13.52;100.00;98245.91;5115742;28;20207;-77
2023/05/09 05:23:25;;;;;;;27.97;24.60;;;;;;;13.59;100.00;98236.72;5116407;28;20206;-77
2023/05/09 05:25:52;;;;;;;27.27;24.47;;;;;;;13.59;100.00;98242.06;5115932;28;20269;-77
2023/05/09 05:28:19;;;;;;;28.73;25.73;;;;;;;13.61;100.00;98242.63;5115913;28;20208;-77
2023/05/09 05:30:45;;;;;;;29.00;26.10;;;;;;;13.55;100.00;98238.25;5116105;28;20203;-77
2023/05/09 05:33:12;;;;;;;28.73;25.73;;;;;;;13.59;100.00;98244.75;5116087;28;20210;-77
2023/05/09 05:35:38;;;;;;;27.60;24.77;;;;;;;13.61;100.00;98236.50;5116111;28;20231;-77
2023/05/09 05:38:05;;;;;;;27.37;24.23;;;;;;;13.66;100.00;98232.06;5115376;28;20203;-77
2023/05/09 05:40:31;;;;;;;28.63;25.70;;;;;;;13.73;100.00;98237.28;5115378;28;20693;-77
2023/05/09 05:42:57;;;;;;;29.40;25.90;;;;;;;13.74;100.00;98229.03;5115883;28;20214;-77
2023/05/09 05:45:24;;;;;;;28.77;25.70;;;;;;;13.70;100.00;98237.78;5115667;28;20215;-77
2023/05/09 05:47:50;;;;;;;28.20;25.20;;;;;;;13.71;100.00;98231.38;5115499;28;20199;-77
2023/05/09 05:50:16;;;;;;;28.70;25.70;;;;;;;13.71;100.00;98231.38;5115229;28;20211;-77
2023/05/09 05:52:43;;;;;;;27.73;24.83;;;;;;;13.73;100.00;98232.75;5115275;28;20670;-77
2023/05/09 05:55:09;;;;;;;27.63;24.83;;;;;;;13.76;100.00;98226.97;5115940;28;20546;-77
2023/05/09 05:57:36;;;;;;;28.77;25.77;;;;;;;13.80;100.00;98228.09;5115042;28;20243;-77
2023/05/09 06:00:05;;;;;;;29.00;25.73;;;;;;;13.82;100.00;98225.19;5115151;28;20666;-77
2023/05/09 06:02:31;;;;;;;28.23;25.40;;;;;;;13.93;100.00;98227.03;5115856;28;20226;-77
2023/05/09 06:04:57;;;;;;;28.87;25.93;;;;;;;13.96;100.00;98221.22;5115322;28;20195;-77
2023/05/09 06:07:24;;;;;;;27.90;25.10;;;;;;;14.11;100.00;98227.69;5115277;28;20199;-77
2023/05/09 06:09:50;;;;;;;28.47;25.37;;;;;;;14.26;100.00;98222.69;5115049;27;20686;-77
2023/05/09 06:12:16;;;;;;;29.17;26.17;;;;;;;14.48;100.00;98212.91;5114583;28;20211;-77
2023/05/09 06:14:43;;;;;;;27.77;24.90;;;;;;;14.73;100.00;98208.03;5114795;28;20216;-77
2023/05/09 06:17:09;;;;;;;27.67;24.43;;;;;;;14.99;100.00;98214.63;5114934;28;20219;-77
2023/05/09 06:19:36;;;;;;;25.93;23.33;;;;;;;14.99;100.00;98204.72;5115196;28;20203;-77
2023/05/09 06:22:03;;;;;;;25.60;23.00;;;;;;;14.97;100.00;98204.16;5114972;28;20215;-77
2023/05/09 06:24:29;;;;;;;25.23;22.80;;;;;;;15.18;100.00;98206.09;5114921;27;20284;-77
2023/05/09 06:26:56;;;;;;;24.83;22.30;;;;;;;15.05;100.00;98206.44;5114889;28;20223;-74
2023/05/09 06:29:22;;;;;;;24.93;22.43;;;;;;;15.14;100.00;98201.47;5114936;28;20230;-74
2023/05/09 06:31:48;;;;;;;24.63;22.13;;;;;;;15.19;100.00;98205.03;5114350;28;20214;-74
2023/05/09 06:34:15;;;;;;;24.47;22.00;;;;;;;15.15;100.00;98200.44;5114293;28;20209;-74
2023/05/09 06:36:41;;;;;;;25.17;22.57;;;;;;;15.21;100.00;98205.63;5113911;28;20694;-74
2023/05/09 06:39:07;;;;;;;23.93;21.60;;;;;;;15.11;100.00;98205.44;5114730;28;20199;-74
2023/05/09 06:41:34;;;;;;;24.03;21.53;;;;;;;15.14;100.00;98196.09;5114779;28;20210;-74
2023/05/09 06:44:01;;;;;;;23.77;21.27;;;;;;;15.09;100.00;98196.03;5114002;28;20551;-74
2023/05/09 06:46:28;;;;;;;23.83;21.43;;;;;;;14.94;100.00;98193.94;5114302;28;20219;-74
2023/05/09 06:48:54;;;;;;;24.13;21.77;;;;;;;14.96;100.00;98194.50;5114289;28;20200;-74
2023/05/09 06:51:20;;;;;;;25.30;22.60;;;;;;;14.94;100.00;98193.94;5113911;28;20238;-74
2023/05/09 06:53:47;;;;;;;25.03;22.53;;;;;;;15.03;100.00;98191.66;5114173;28;20209;-74
2023/05/09 06:56:13;;;;;;;24.83;22.23;;;;;;;15.03;100.00;98183.63;5114021;28;20597;-74
2023/05/09 06:58:39;;;;;;;26.10;22.30;;;;;;;15.23;100.00;98182.06;5114540;28;20199;-74
2023/05/09 07:01:06;;;;;;;24.43;21.73;;;;;;;15.30;100.00;98187.25;5114311;28;20208;-74
2023/05/09 07:03:32;;;;;;;23.93;21.50;;;;;;;15.30;100.00;98182.72;5114190;28;20215;-75
2023/05/09 07:05:58;;;;;;;23.73;21.33;;;;;;;15.43;100.00;98178.91;5113632;28;20562;-75
2023/05/09 07:08:25;;;;;;;23.23;20.93;;;;;;;15.55;100.00;98175.06;5113864;28;20680;-75
2023/05/09 07:10:52;;;;;;;24.57;21.97;;;;;;;15.58;100.00;98177.25;5114164;28;20214;-74
2023/05/09 07:13:18;;;;;;;23.13;20.77;;;;;;;15.63;100.00;98169.28;5113966;28;20207;-74
2023/05/09 07:15:44;;;;;;;23.20;21.00;;;;;;;15.66;100.00;98171.47;5113842;28;20237;-74
2023/05/09 07:18:11;;;;;;;21.17;19.17;;;;;;;15.59;100.00;98170.00;5113955;28;20207;-74
2023/05/09 07:20:37;;;;;;;22.73;20.47;;;;;;;15.71;100.00;98168.88;5113729;28;20267;-74
2023/05/09 07:23:05;;;;;;;23.73;21.47;;;;;;;15.61;100.00;98167.91;5113799;28;20202;-75
2023/05/09 07:25:31;;;;;;;23.70;21.30;;;;;;;15.69;100.00;98159.44;5113172;28;20215;-75
2023/05/09 07:27:58;;;;;;;22.30;20.10;;;;;;;15.74;100.00;98168.34;5113455;28;20203;-75
2023/05/09 07:30:24;;;;;;;22.63;20.27;;;;;;;16.04;100.00;98141.91;5113826;28;20203;-75
2023/05/09 07:32:51;;;;;;;22.93;20.77;;;;;;;16.16;100.00;98136.41;5114023;28;20203;-75
2023/05/09 07:35:18;;;;;;;22.20;20.00;;;;;;;16.25;100.00;98138.41;5115052;28;20235;-75
2023/05/09 07:37:44;;;;;;;20.03;18.07;;;;;;;16.48;100.00;98130.06;5114037;28;20657;-75
2023/05/09 07:40:11;;;;;;;20.67;18.63;;;;;;;16.69;100.00;98128.38;5113850;28;20203;-75
2023/05/09 07:42:38;;;;;;;20.07;18.10;;;;;;;16.59;100.00;98128.25;5114639;28;20281;-75
2023/05/09 07:45:05;;;;;;;19.83;17.83;;;;;;;16.74;100.00;98125.72;5113801;28;20200;-75
2023/05/09 07:47:32;;;;;;;21.67;19.63;;;;;;;16.67;100.00;98120.56;5114003;28;20211;-75
2023/05/09 07:50:00;;;;;;;20.47;18.40;;;;;;;16.65;100.00;98114.63;5113548;28;20203;-73
2023/05/09 07:52:26;;;;;;;20.03;18.00;;;;;;;16.73;100.00;98111.47;5113455;28;20207;-74
2023/05/09 07:54:53;;;;;;;20.50;18.50;;;;;;;16.69;100.00;98113.06;5113136;28;20661;-74
2023/05/09 07:57:19;;;;;;;20.70;18.80;;;;;;;16.77;100.00;98109.91;5113548;28;20217;-74
2023/05/09 07:59:46;;;;;;;20.63;18.63;;;;;;;16.77;100.00;98114.44;5113582;28;20554;-75
2023/05/09 08:02:12;;;;;;;22.07;19.80;;;;;;;16.77;100.00;98109.91;5113691;28;20207;-75
2023/05/09 08:04:39;;;;;;;19.13;17.23;;;;;;;17.12;100.00;98101.28;5113610;28;20290;-75
2023/05/09 08:07:07;;;;;;;19.30;17.50;;;;;;;17.11;100.00;98092.44;5113298;28;20240;-74
2023/05/09 08:09:34;;;;;;;19.67;17.57;;;;;;;17.32;100.00;98086.09;5113696;28;20203;-74
2023/05/09 08:12:00;;;;;;;17.00;15.10;;;;;;;17.32;100.00;98083.41;5113722;28;20203;-75
2023/05/09 08:14:27;;;;;;;15.27;13.80;;;;;;;17.36;100.00;98081.81;5113530;28;20210;-75
2023/05/09 08:16:53;;;;;;;16.60;14.80;;;;;;;17.21;100.00;98073.69;5113055;28;20234;-75
2023/05/09 08:19:19;;;;;;;17.77;16.13;;;;;;;17.07;100.00;98072.53;5113303;28;20222;-75
2023/05/09 08:21:46;;;;;;;17.00;15.20;;;;;;;17.16;100.00;98073.66;5112997;28;20218;-75
2023/05/09 08:24:12;;;;;;;16.77;15.17;;;;;;;17.27;100.00;98072.63;5113444;28;20207;-75
2023/05/09 08:26:39;;;;;;;16.37;14.73;;;;;;;17.32;100.00;98066.50;5113082;28;20215;-75
2023/05/09 08:29:06;;;;;;;17.27;15.67;;;;;;;17.28;100.00;98060.00;5113407;28;20244;-75
2023/05/09 08:31:32;;;;;;;15.73;14.10;;;;;;;17.54;100.00;98051.81;5113408;28;20260;-75
2023/05/09 08:33:58;;;;;;;15.40;14.00;;;;;;;17.64;100.00;98045.69;5113093;28;20215;-75
2023/05/09 08:36:25;;;;;;;16.37;14.67;;;;;;;17.64;100.00;98045.69;5114434;28;20223;-75
2023/05/09 08:38:51;;;;;;;15.77;14.40;;;;;;;17.69;100.00;98043.81;5116716;28;20209;-75
2023/05/09 08:41:20;;;;;;;16.23;14.63;;;;;;;17.90;100.00;98032.03;5117200;28;20209;-75
2023/05/09 08:43:47;;;;;;;16.87;15.17;;;;;;;17.93;100.00;98025.31;5117175;28;20405;-75
2023/05/09 08:46:16;;;;;;;16.93;15.33;;;;;;;17.95;100.00;98026.66;5117200;28;20227;-74
2023/05/09 08:48:44;;;;;;;16.10;14.50;;;;;;;17.95;100.00;98021.28;5116903;28;20203;-75
2023/05/09 08:51:10;;;;;;;16.03;14.63;;;;;;;18.14;100.00;98025.06;5116821;28;20210;-75
2023/05/09 08:53:37;;;;;;;15.50;14.07;;;;;;;18.30;100.00;98029.41;5116496;28;20204;-75
2023/05/09 08:56:04;;;;;;;16.43;14.93;;;;;;;18.29;100.00;98029.66;5116304;28;20223;-75
2023/05/09 08:58:31;;;;;;;15.50;14.00;;;;;;;18.44;100.00;98027.00;5116438;28;20203;-75
2023/05/09 09:00:58;;;;;;;15.37;13.40;;;;;;;18.41;100.00;98039.13;5116911;28;20239;-75
2023/05/09 09:03:25;;;;;;;14.90;13.60;;;;;;;18.53;100.00;98026.19;5116865;28;20210;-75
2023/05/09 09:05:53;;;;;;;14.10;12.83;;;;;;;18.28;100.00;98034.22;5116163;28;20219;-75
2023/05/09 09:08:26;;;;;;;15.03;13.63;;;;;;;18.18;100.00;98028.84;5116687;28;20556;-75
2023/05/09 09:10:53;;;;;;;15.03;13.63;;;;;;;18.19;100.00;98033.16;5116247;28;20226;-75
2023/05/09 09:13:20;;;;;;;14.83;13.43;;;;;;;17.94;100.00;98019.69;5116399;28;20203;-75
2023/05/09 09:15:48;;;;;;;15.20;13.90;;;;;;;17.85;100.00;98017.75;5115988;28;20316;-75
2023/05/09 09:18:23;;;;;;;15.93;14.47;;;;;;;17.78;100.00;98018.00;5115646;28;20203;-75
2023/05/09 09:20:54;;;;;;;15.53;14.03;;;;;;;17.86;100.00;98014.81;5116162;28;20220;-75
2023/05/09 09:23:25;;;;;;;14.67;13.13;;;;;;;17.90;100.00;98007.00;5115961;28;20191;-75
2023/05/09 09:26:04;;;;;;;14.33;12.37;;;;;;;17.95;100.00;98007.03;5116227;28;20220;-75
2023/05/09 09:28:30;;;;;;;14.77;13.47;;;;;;;17.84;100.00;98000.84;5116138;27;20210;-75
2023/05/09 09:30:57;;;;;;;12.83;11.63;;;;;;;17.78;100.00;98001.88;5116025;28;20207;-75
2023/05/09 09:33:25;;;;;;;13.90;12.60;;;;;;;18.19;100.00;97994.69;5115553;28;20684;-75
2023/05/09 09:35:54;;;;;;;14.03;12.70;;;;;;;18.52;100.00;97994.97;5115935;28;20231;-75
2023/05/09 09:38:22;;;;;;;13.90;12.60;;;;;;;18.78;100.00;97980.38;5115647;27;20209;-77
2023/05/09 09:40:53;;;;;;;14.00;12.70;;;;;;;18.73;100.00;97985.78;5116114;28;20214;-78
2023/05/09 09:43:19;;;;;;;15.00;13.50;;;;;;;19.00;100.00;97980.88;5115558;28;20214;-77
2023/05/09 09:45:50;;;;;;;12.47;11.33;;;;;;;19.23;100.00;97974.09;5115878;28;20311;-78
2023/05/09 09:48:16;;;;;;;12.80;11.50;;;;;;;19.33;100.00;97969.47;5115313;28;20207;-76
2023/05/09 09:50:42;;;;;;;13.10;11.97;;;;;;;19.42;100.00;97969.69;5115579;28;20218;-76
2023/05/09 09:53:09;;;;;;;13.47;12.27;;;;;;;19.64;100.00;97956.63;5115483;28;20217;-75
2023/05/09 09:55:35;;;;;;;12.37;11.23;;;;;;;19.81;100.00;97958.94;5115455;27;20227;-75
2023/05/09 09:58:02;;;;;;;12.97;11.87;;;;;;;19.93;98.34;97952.09;5115008;28;20570;-75
2023/05/09 10:00:29;;;;;;;13.23;12.13;;;;;;;20.24;95.06;97939.19;5115020;28;20259;-77
2023/05/09 10:02:57;;;;;;;10.93;9.93;;;;;;;20.00;96.61;97935.59;5115282;28;20686;-77
2023/05/09 10:05:28;;;;;;;11.73;10.23;;;;;;;19.77;99.03;97935.22;5115254;28;20233;-78
2023/05/09 10:08:00;;;;;;;10.60;9.70;;;;;;;19.76;95.38;97932.00;5115031;27;20184;-77
2023/05/09 10:10:34;;;;;;;10.00;9.20;;;;;;;19.80;95.26;97936.53;5114935;28;20705;-77
2023/05/09 10:13:11;;;;;;;13.50;8.90;;;;;;;19.93;95.37;97922.44;5115257;28;20206;-77
2023/05/09 10:15:38;;;;;;;8.83;8.07;;;;;;;19.80;97.53;97914.97;5115187;28;20275;-77
2023/05/09 10:18:06;;;;;;;10.20;9.27;;;;;;;19.73;94.46;97919.88;5115048;28;20210;-75
2023/05/09 10:20:34;;;;;;;9.43;8.50;;;;;;;19.91;93.55;97916.50;5114888;28;20634;-75
2023/05/09 10:23:06;;;;;;;8.47;7.67;;;;;;;19.94;94.18;97912.44;5115015;28;20210;-73
2023/05/09 10:25:40;;;;;;;9.40;8.63;;;;;;;19.93;94.60;97900.06;5114586;28;20713;-75
2023/05/09 10:28:15;;;;;;;9.67;8.87;;;;;;;19.70;96.31;97901.56;5114951;28;20607;-75
2023/05/09 10:30:59;;;;;;;11.50;9.53;;;;;;;19.83;97.81;97892.81;5113843;28;20603;-75
2023/05/09 10:33:42;;;;;;;10.73;9.17;;;;;;;19.66;98.23;97892.41;5114986;28;20218;-75
2023/05/09 10:36:09;;;;;;;11.80;10.57;;;;;;;19.41;100.00;97887.19;5114527;28;20276;-75
2023/05/09 10:38:37;;;;;;;11.53;10.43;;;;;;;19.55;100.00;97888.97;5114921;28;20203;-75
2023/05/09 10:41:04;;;;;;;13.30;10.70;;;;;;;19.57;100.00;97885.22;5114381;28;20577;-75
2023/05/09 10:43:35;;;;;;;11.03;10.03;;;;;;;19.88;92.77;97870.38;5114610;28;20210;-75
2023/05/09 10:46:03;;;;;;;9.87;9.07;;;;;;;19.95;92.56;97869.00;5114575;28;20223;-75
2023/05/09 10:48:31;;;;;;;9.27;8.50;;;;;;;20.00;95.75;97870.84;5114377;27;20678;-75
2023/05/09 10:50:59;;;;;;;10.33;9.17;;;;;;;20.36;89.43;97869.44;5114526;28;20207;-75
2023/05/09 10:53:42;;;;;;;9.80;8.90;;;;;;;19.76;91.91;97865.34;5114443;28;20254;-75
2023/05/09 10:56:08;;;;;;;9.47;8.73;;;;;;;20.04;94.95;97861.09;5114114;28;20403;-75
2023/05/09 10:58:37;;;;;;;11.20;10.20;;;;;;;19.80;90.95;97854.81;5114197;28;20597;-75
2023/05/09 11:01:05;;;;;;;11.27;10.17;;;;;;;19.79;91.93;97859.41;5113243;28;20745;-75
2023/05/09 11:03:56;;;;;;;11.60;10.57;;;;;;;20.26;93.64;97845.25;5114104;28;20219;-75
2023/05/09 11:06:41;;;;;;;11.97;10.77;;;;;;;20.19;97.66;97842.06;5114515;28;20230;-75
2023/05/09 11:09:24;;;;;;;11.20;10.30;;;;;;;20.34;93.04;97828.44;5114232;28;20210;-75
2023/05/09 11:11:52;;;;;;;9.07;8.33;;;;;;;20.80;92.33;97824.09;5114053;28;20302;-75
2023/05/09 11:14:33;;;;;;;10.83;9.93;;;;;;;20.79;88.33;97820.59;5113942;28;20711;-75
2023/05/09 11:17:03;;;;;;;10.03;9.10;;;;;;;20.66;93.63;97813.19;5113612;28;20227;-75